Time;durP1;ratioP1;P1;durP2;ratioP2;P2;SDS_P1;SDS_P2;PMS_P1;PMS_P2;Temp;Humidity;BMP_temperature;BMP_pressure;BME280_temperature;BME280_humidity;BME280_pressure;Samples;Min_cycle;Max_cycle;Signal;HPM_P1;HPM_P2
2023/05/12 00:02:11;;;;;;;7.35;4.13;;;;;;;18.75;36.77;101688.44;4994620;28;20037;-33
2023/05/12 00:04:39;;;;;;;7.93;3.05;;;;;;;18.71;36.93;101689.66;4991690;28;20481;-33
2023/05/12 00:07:05;;;;;;;8.35;3.55;;;;;;;18.76;36.60;101687.47;5013937;22;20030;-33
2023/05/12 00:09:31;;;;;;;11.48;5.55;;;;;;;18.77;36.80;101689.19;5012996;28;20119;-33
2023/05/12 00:11:56;;;;;;;7.28;3.53;;;;;;;18.74;36.78;101689.41;5000590;28;20438;-33
2023/05/12 00:14:22;;;;;;;6.63;3.78;;;;;;;18.72;36.83;101696.69;5005909;22;20049;-33
2023/05/12 00:16:50;;;;;;;7.10;3.13;;;;;;;18.69;36.70;101691.56;4981193;28;20026;-34
2023/05/12 00:19:17;;;;;;;6.55;3.38;;;;;;;18.65;36.87;101690.97;4995697;28;20112;-34
2023/05/12 00:21:42;;;;;;;8.45;3.60;;;;;;;18.50;36.89;101695.69;4994474;28;20682;-34
2023/05/12 00:24:08;;;;;;;5.88;4.32;;;;;;;18.34;37.43;101692.50;5001187;28;20084;-33
2023/05/12 00:26:33;;;;;;;6.53;3.90;;;;;;;18.19;37.63;101697.16;5010567;22;20030;-33
2023/05/12 00:28:59;;;;;;;7.68;4.25;;;;;;;18.15;37.71;101699.19;5011061;28;20036;-33
2023/05/12 00:31:24;;;;;;;7.80;3.50;;;;;;;18.05;37.93;101693.69;5010662;28;20033;-33
2023/05/12 00:33:50;;;;;;;9.02;4.20;;;;;;;17.91;38.24;101697.38;5015442;28;20845;-33
2023/05/12 00:36:15;;;;;;;10.68;4.03;;;;;;;17.82;38.39;101703.34;5011721;28;20037;-33
2023/05/12 00:38:41;;;;;;;7.10;4.20;;;;;;;17.76;38.58;101695.84;5032357;22;20033;-34
2023/05/12 00:41:06;;;;;;;7.30;4.13;;;;;;;17.77;38.74;101694.88;4980530;28;20062;-35
2023/05/12 00:43:32;;;;;;;15.20;4.28;;;;;;;17.86;38.50;101693.31;4940896;28;20030;-34
2023/05/12 00:45:59;;;;;;;10.52;4.03;;;;;;;17.95;38.39;101695.31;4977971;28;20149;-34
2023/05/12 00:48:24;;;;;;;6.90;4.05;;;;;;;17.97;38.33;101696.94;4961803;28;20031;-34
2023/05/12 00:50:50;;;;;;;7.88;4.25;;;;;;;18.03;38.21;101702.78;4983218;28;20036;-35
2023/05/12 00:53:16;;;;;;;6.88;3.28;;;;;;;18.04;38.21;101696.50;4985048;28;20031;-35
2023/05/12 00:55:42;;;;;;;9.50;3.75;;;;;;;18.01;38.23;101696.72;4979600;28;20136;-35
2023/05/12 00:58:08;;;;;;;11.18;4.28;;;;;;;18.03;38.15;101694.78;4979627;28;20524;-35
2023/05/12 01:00:33;;;;;;;20.30;5.75;;;;;;;18.01;38.35;101702.88;4974250;28;20046;-35
2023/05/12 01:02:59;;;;;;;24.52;4.75;;;;;;;18.02;38.32;101703.75;4978940;28;20049;-35
2023/05/12 01:05:34;;;;;;;17.75;5.50;;;;;;;18.00;38.55;101697.69;4976809;28;20062;-34
2023/05/12 01:08:00;;;;;;;16.48;4.20;;;;;;;17.96;38.45;101700.53;4975901;28;20065;-34
2023/05/12 01:10:26;;;;;;;16.80;5.32;;;;;;;17.95;38.48;101700.66;4961528;28;20451;-34
2023/05/12 01:12:51;;;;;;;10.05;4.28;;;;;;;17.92;38.46;101699.03;4975417;28;20495;-34
2023/05/12 01:15:17;;;;;;;12.35;3.88;;;;;;;17.86;38.68;101703.97;4978834;28;20034;-35
2023/05/12 01:17:55;;;;;;;9.68;4.45;;;;;;;17.82;39.08;101704.22;4972870;28;20054;-34
2023/05/12 01:20:24;;;;;;;7.45;3.88;;;;;;;17.75;38.96;101699.47;4959341;28;20046;-34
2023/05/12 01:22:51;;;;;;;7.82;4.47;;;;;;;17.71;38.81;101712.13;4980328;28;20038;-33
2023/05/12 01:25:21;;;;;;;12.10;4.68;;;;;;;17.70;39.26;101705.09;4975722;28;20038;-33
2023/05/12 01:27:48;;;;;;;7.65;4.25;;;;;;;17.71;39.11;101708.63;4977395;28;20053;-34
2023/05/12 01:30:17;;;;;;;9.00;4.88;;;;;;;17.69;39.13;101703.44;4976989;28;20104;-34
2023/05/12 01:32:42;;;;;;;13.25;4.65;;;;;;;17.66;39.23;101707.13;4973699;28;20092;-34
2023/05/12 01:35:08;;;;;;;12.82;5.53;;;;;;;17.68;39.12;101715.03;4961072;28;20424;-34
2023/05/12 01:37:34;;;;;;;10.10;5.30;;;;;;;17.65;39.15;101713.41;4974677;28;20038;-33
2023/05/12 01:39:59;;;;;;;8.45;4.82;;;;;;;17.60;39.30;101718.25;4988371;28;20026;-34
2023/05/12 01:42:25;;;;;;;11.55;5.28;;;;;;;17.61;39.15;101717.28;4980579;28;20034;-34
2023/05/12 01:44:50;;;;;;;11.57;6.05;;;;;;;17.58;39.31;101714.84;4981256;28;20124;-34
2023/05/12 01:47:15;;;;;;;12.50;5.47;;;;;;;17.57;39.20;101715.81;4975549;28;20042;-33
2023/05/12 01:49:41;;;;;;;8.85;5.00;;;;;;;17.52;39.28;101710.81;4995153;23;20045;-33
2023/05/12 01:52:07;;;;;;;8.55;5.45;;;;;;;17.44;39.49;101712.31;5015666;28;20053;-33
2023/05/12 01:54:32;;;;;;;8.43;4.53;;;;;;;17.42;39.60;101711.56;4992490;28;20029;-34
2023/05/12 01:56:57;;;;;;;13.02;5.55;;;;;;;17.38;39.73;101716.28;5004922;28;20034;-33
2023/05/12 01:59:23;;;;;;;9.88;4.82;;;;;;;17.39;39.76;101717.13;5010578;28;21232;-33
2023/05/12 02:01:48;;;;;;;15.63;5.65;;;;;;;17.37;39.69;101710.09;4997220;28;20492;-33
2023/05/12 02:04:14;;;;;;;8.95;6.05;;;;;;;17.38;39.64;101710.97;5011088;28;20033;-32
2023/05/12 02:06:39;;;;;;;9.90;5.07;;;;;;;17.30;39.76;101714.16;5006746;28;20951;-31
2023/05/12 02:09:04;;;;;;;10.93;4.80;;;;;;;17.27;39.87;101713.50;5011424;28;20372;-34
2023/05/12 02:11:30;;;;;;;11.50;4.82;;;;;;;17.12;40.16;101723.44;5014187;28;20588;-33
2023/05/12 02:13:55;;;;;;;10.07;5.32;;;;;;;16.97;40.48;101718.22;5014969;28;20060;-33
2023/05/12 02:16:21;;;;;;;8.52;5.10;;;;;;;16.86;40.76;101723.41;5013214;28;20116;-34
2023/05/12 02:18:46;;;;;;;9.93;5.53;;;;;;;16.87;40.68;101722.44;5011332;28;20096;-32
2023/05/12 02:21:12;;;;;;;7.88;4.50;;;;;;;16.95;40.62;101722.78;5023460;22;20587;-34
2023/05/12 02:23:38;;;;;;;9.32;5.68;;;;;;;17.00;40.44;101723.34;5016389;28;20041;-34
2023/05/12 02:26:03;;;;;;;10.15;4.80;;;;;;;16.99;40.50;101726.94;5013584;28;20030;-34
2023/05/12 02:28:29;;;;;;;9.75;4.82;;;;;;;16.89;40.51;101728.50;5012296;28;20403;-34
2023/05/12 02:30:54;;;;;;;7.97;4.50;;;;;;;16.71;40.98;101726.13;5013552;28;20077;-35
2023/05/12 02:33:20;;;;;;;8.13;5.03;;;;;;;16.51;41.41;101732.81;5018167;28;20018;-35
2023/05/12 02:35:46;;;;;;;10.65;4.88;;;;;;;16.55;41.43;101730.81;4995601;28;26186;-34
2023/05/12 02:38:12;;;;;;;7.25;4.18;;;;;;;16.48;41.67;101730.38;5013805;28;20067;-34
2023/05/12 02:40:38;;;;;;;10.93;5.03;;;;;;;16.46;41.70;101725.16;5037367;22;20255;-33
2023/05/12 02:43:03;;;;;;;9.82;4.78;;;;;;;16.41;41.86;101737.88;5034960;28;20387;-33
2023/05/12 02:47:56;;;;;;;9.40;4.20;;;;;;;16.48;41.66;101738.34;5029430;28;20053;-35
2023/05/12 02:50:22;;;;;;;9.85;4.82;;;;;;;16.49;41.45;101744.50;5035719;28;20033;-34
2023/05/12 02:52:48;;;;;;;11.52;5.40;;;;;;;16.51;41.52;101745.25;5029705;28;20026;-35
2023/05/12 02:55:14;;;;;;;10.60;4.88;;;;;;;16.56;41.45;101743.97;5035626;28;20036;-35
2023/05/12 02:57:39;;;;;;;8.00;4.60;;;;;;;16.60;41.19;101742.84;5013281;22;20046;-32
2023/05/12 03:00:06;;;;;;;13.35;4.80;;;;;;;16.56;41.27;101743.16;4987481;28;20034;-32
2023/05/12 03:02:32;;;;;;;12.13;5.47;;;;;;;16.50;41.46;101746.22;4974134;28;20089;-32
2023/05/12 03:04:58;;;;;;;10.70;5.07;;;;;;;16.43;41.53;101749.25;5027713;23;21268;-33
2023/05/12 03:07:23;;;;;;;15.43;5.15;;;;;;;16.37;41.65;101747.03;5034941;28;20102;-33
2023/05/12 03:09:48;;;;;;;13.45;5.10;;;;;;;16.34;41.72;101747.22;5027137;28;20025;-34
2023/05/12 03:12:14;;;;;;;13.65;5.25;;;;;;;16.29;41.79;101744.88;5025798;28;20029;-33
2023/05/12 03:14:40;;;;;;;15.90;5.75;;;;;;;16.28;41.92;101743.19;5033955;22;20076;-34
2023/05/12 03:17:05;;;;;;;13.07;5.05;;;;;;;16.29;41.88;101744.00;5019037;28;20042;-34
2023/05/12 03:19:30;;;;;;;12.48;5.38;;;;;;;16.31;41.79;101742.09;5015926;28;20699;-35
2023/05/12 03:21:56;;;;;;;12.45;5.13;;;;;;;16.39;41.59;101750.44;5029566;28;20044;-34
2023/05/12 03:24:21;;;;;;;10.77;6.40;;;;;;;16.37;41.61;101751.47;5031463;28;20029;-35
2023/05/12 03:26:47;;;;;;;8.68;5.53;;;;;;;16.40;41.54;101749.50;5030326;23;20051;-33
2023/05/12 03:29:13;;;;;;;8.88;4.80;;;;;;;16.39;41.41;101745.13;5034991;28;20050;-34
2023/05/12 03:31:38;;;;;;;12.25;6.40;;;;;;;16.36;41.65;101741.81;5043783;22;21531;-35
2023/05/12 03:34:04;;;;;;;10.85;5.20;;;;;;;16.29;41.68;101751.97;5010529;28;20408;-33
2023/05/12 03:36:29;;;;;;;12.80;5.88;;;;;;;16.18;42.07;101746.53;4994353;28;20056;-33
2023/05/12 03:38:55;;;;;;;11.10;5.43;;;;;;;16.03;42.27;101749.25;5020983;28;20033;-33
2023/05/12 03:41:20;;;;;;;9.32;5.47;;;;;;;15.96;42.41;101747.91;4997264;28;20034;-33
2023/05/12 03:43:46;;;;;;;13.32;6.88;;;;;;;15.88;42.50;101752.88;5008397;23;20029;-34
2023/05/12 03:46:12;;;;;;;60.45;26.38;;;;;;;15.91;42.41;101750.03;5015651;28;20037;-33
2023/05/12 03:48:37;;;;;;;16.35;6.78;;;;;;;15.89;42.50;101757.25;5020591;22;20220;-34
2023/05/12 03:51:03;;;;;;;12.82;5.72;;;;;;;15.94;42.44;101755.16;4998596;28;20029;-34
2023/05/12 03:53:29;;;;;;;9.35;5.78;;;;;;;15.89;42.54;101750.13;5003240;28;20023;-34
2023/05/12 03:55:54;;;;;;;12.95;5.65;;;;;;;15.91;42.54;101760.66;5000577;28;20063;-33
2023/05/12 03:58:22;;;;;;;13.93;5.43;;;;;;;15.97;42.46;101765.56;4997462;28;20030;-33
2023/05/12 04:00:48;;;;;;;10.13;5.38;;;;;;;15.99;42.36;101763.66;4994778;28;22508;-32
2023/05/12 04:03:14;;;;;;;11.75;6.63;;;;;;;15.89;42.63;101768.69;4999959;28;20026;-34
2023/05/12 04:05:41;;;;;;;17.10;5.00;;;;;;;15.85;42.59;101757.44;5030108;23;20041;-36
2023/05/12 04:08:07;;;;;;;20.10;7.00;;;;;;;15.90;42.62;101765.09;5017649;28;20025;-35
2023/05/12 04:10:40;;;;;;;12.27;5.65;;;;;;;15.99;42.46;101768.97;5013286;28;20026;-35
2023/05/12 04:13:07;;;;;;;21.98;6.28;;;;;;;15.97;42.52;101774.38;5026918;23;20395;-34
2023/05/12 04:15:35;;;;;;;20.33;6.40;;;;;;;15.95;42.73;101773.63;5038124;28;20029;-35
2023/05/12 04:18:02;;;;;;;15.55;6.43;;;;;;;16.00;42.40;101773.31;5042192;22;20058;-35
2023/05/12 04:20:28;;;;;;;13.15;5.60;;;;;;;16.03;42.49;101770.47;4993534;28;20058;-34
2023/05/12 04:22:54;;;;;;;16.02;8.13;;;;;;;15.98;42.59;101773.44;4991341;28;20022;-34
2023/05/12 04:25:20;;;;;;;13.13;8.32;;;;;;;15.91;42.79;101777.41;4986212;28;20042;-33
2023/05/12 04:27:45;;;;;;;13.70;5.40;;;;;;;15.93;42.91;101777.34;4986878;28;20047;-34
2023/05/12 04:30:11;;;;;;;10.50;4.75;;;;;;;15.95;42.69;101775.44;4973332;28;20482;-34
2023/05/12 04:32:36;;;;;;;13.75;5.47;;;;;;;16.03;42.64;101773.13;4986468;28;20038;-33
2023/05/12 04:35:02;;;;;;;11.98;5.60;;;;;;;16.11;42.61;101776.13;4987707;28;20037;-34
2023/05/12 04:37:27;;;;;;;11.52;5.72;;;;;;;16.19;42.42;101777.44;4989773;28;20484;-34
2023/05/12 04:39:53;;;;;;;12.23;5.40;;;;;;;16.23;42.32;101785.09;4977498;28;20046;-34
2023/05/12 04:42:18;;;;;;;17.58;7.28;;;;;;;16.24;42.47;101783.31;4998294;28;20165;-34
2023/05/12 04:44:46;;;;;;;9.60;5.75;;;;;;;16.23;42.50;101792.22;5030895;23;20026;-31
2023/05/12 04:47:12;;;;;;;8.05;5.20;;;;;;;16.29;42.25;101789.16;4995427;28;20083;-31
2023/05/12 04:49:37;;;;;;;12.57;5.07;;;;;;;16.25;42.55;101793.84;5014453;28;20029;-32
2023/05/12 04:52:06;;;;;;;14.10;5.75;;;;;;;16.26;42.59;101798.19;5014543;28;20044;-31
2023/05/12 04:54:32;;;;;;;8.75;3.55;;;;;;;16.33;42.45;101795.97;5023365;28;20028;-31
2023/05/12 04:56:57;;;;;;;13.55;5.60;;;;;;;16.39;42.24;101803.56;5034135;22;21192;-33
2023/05/12 04:59:23;;;;;;;10.68;4.70;;;;;;;16.37;42.50;101801.94;4999786;28;20033;-34
2023/05/12 05:01:50;;;;;;;10.43;5.78;;;;;;;16.41;42.43;101795.47;5001881;28;20025;-34
2023/05/12 05:04:15;;;;;;;11.68;7.95;;;;;;;16.45;42.27;101803.13;5021247;23;20041;-32
2023/05/12 05:06:41;;;;;;;15.63;6.13;;;;;;;16.50;42.38;101812.63;5020276;28;20089;-32
2023/05/12 05:09:06;;;;;;;11.77;5.60;;;;;;;16.50;42.49;101805.47;5038148;22;20029;-34
2023/05/12 05:11:32;;;;;;;12.13;5.10;;;;;;;16.51;42.73;101809.84;5039595;28;20036;-34
2023/05/12 05:13:57;;;;;;;11.27;5.88;;;;;;;16.49;42.86;101813.56;5042414;28;20055;-34
2023/05/12 05:16:23;;;;;;;9.82;4.63;;;;;;;16.55;42.80;101818.50;5041245;28;20044;-34
2023/05/12 05:18:48;;;;;;;12.93;4.85;;;;;;;16.60;42.65;101819.88;5043855;28;20087;-34
2023/05/12 05:21:14;;;;;;;8.75;5.28;;;;;;;16.59;42.73;101825.28;5042153;28;20088;-34
2023/05/12 05:23:40;;;;;;;19.13;5.78;;;;;;;16.55;42.84;101823.81;5046982;28;20737;-34
2023/05/12 05:26:06;;;;;;;12.93;5.30;;;;;;;16.56;42.94;101828.16;5042218;28;20102;-34
2023/05/12 05:28:31;;;;;;;8.77;5.30;;;;;;;16.60;42.96;101819.03;5043214;28;20036;-34
2023/05/12 05:30:57;;;;;;;14.38;5.55;;;;;;;16.67;42.88;101825.66;5041579;28;20033;-34
2023/05/12 05:33:22;;;;;;;17.63;5.82;;;;;;;16.70;42.95;101828.09;5039408;28;20037;-34
2023/05/12 05:35:48;;;;;;;11.80;5.57;;;;;;;16.73;43.13;101825.22;5046939;28;20041;-34
2023/05/12 05:38:13;;;;;;;17.38;7.15;;;;;;;16.77;43.19;101826.72;5042881;28;20480;-33
2023/05/12 05:40:39;;;;;;;14.30;5.78;;;;;;;16.82;43.39;101834.38;5046801;28;20083;-35
2023/05/12 05:43:05;;;;;;;11.32;5.75;;;;;;;16.82;43.33;101837.03;5040654;28;20051;-34
2023/05/12 05:45:31;;;;;;;13.82;8.13;;;;;;;16.81;43.34;101834.50;5044497;28;20028;-35
2023/05/12 05:47:56;;;;;;;15.38;7.85;;;;;;;16.85;43.22;101841.31;5033520;28;20648;-34
2023/05/12 05:50:22;;;;;;;14.63;7.00;;;;;;;16.93;43.17;101836.31;5041139;28;20037;-35
2023/05/12 05:52:50;;;;;;;12.95;6.35;;;;;;;16.98;43.23;101839.56;5036717;28;20024;-35
2023/05/12 05:55:15;;;;;;;13.52;6.10;;;;;;;17.04;43.02;101841.78;5042161;28;20029;-34
2023/05/12 05:57:41;;;;;;;17.02;6.22;;;;;;;17.09;42.94;101844.16;5042048;28;20033;-34
2023/05/12 06:00:08;;;;;;;11.43;5.40;;;;;;;17.11;42.86;101844.06;5051693;28;20468;-34
2023/05/12 06:02:35;;;;;;;9.98;5.18;;;;;;;17.16;42.80;101840.13;5049110;28;20037;-34
2023/05/12 06:05:01;;;;;;;13.00;5.10;;;;;;;17.23;42.63;101840.53;5046284;28;20035;-35
2023/05/12 06:07:26;;;;;;;11.43;4.90;;;;;;;17.24;42.77;101831.59;5047287;28;20434;-35
2023/05/12 06:09:52;;;;;;;11.75;5.50;;;;;;;17.30;42.80;101841.84;5043987;28;20029;-35
2023/05/12 06:12:18;;;;;;;7.10;4.70;;;;;;;17.34;42.57;101848.63;5048760;28;20016;-35
2023/05/12 06:14:43;;;;;;;10.50;4.97;;;;;;;17.37;42.60;101843.09;5050983;28;20039;-35
2023/05/12 06:17:09;;;;;;;12.57;4.93;;;;;;;17.41;42.63;101850.88;5051189;28;20041;-36
2023/05/12 06:19:35;;;;;;;12.68;4.90;;;;;;;17.46;42.53;101852.25;5042845;28;20021;-35
2023/05/12 06:22:00;;;;;;;18.05;3.88;;;;;;;17.49;42.72;101856.50;5045960;28;20098;-36
2023/05/12 06:24:26;;;;;;;13.30;5.60;;;;;;;17.53;42.49;101855.34;5040398;28;20618;-36
2023/05/12 06:26:51;;;;;;;11.27;5.13;;;;;;;17.61;42.31;101857.47;5042054;28;20052;-36
2023/05/12 06:29:16;;;;;;;9.00;4.53;;;;;;;17.67;42.24;101857.88;5041248;28;20032;-36
2023/05/12 06:31:42;;;;;;;12.00;5.80;;;;;;;17.73;42.19;101863.75;5044603;28;20040;-35
2023/05/12 06:34:07;;;;;;;15.77;6.88;;;;;;;17.77;42.07;101862.56;5047124;28;20387;-35
2023/05/12 06:36:33;;;;;;;10.75;5.65;;;;;;;17.80;42.18;101870.31;5042135;28;20039;-36
2023/05/12 06:38:58;;;;;;;8.32;4.63;;;;;;;17.83;42.19;101864.78;5037679;28;20051;-35
2023/05/12 06:41:24;;;;;;;31.33;10.82;;;;;;;17.82;42.10;101868.41;5032747;28;20033;-36
2023/05/12 06:43:51;;;;;;;9.38;4.70;;;;;;;17.88;41.78;101870.66;5033503;28;20032;-36
2023/05/12 06:46:17;;;;;;;10.20;4.72;;;;;;;17.94;41.63;101872.84;5039713;28;20163;-35
2023/05/12 06:48:42;;;;;;;13.20;5.22;;;;;;;18.03;41.50;101867.88;5042773;28;20515;-35
2023/05/12 06:51:08;;;;;;;15.45;5.50;;;;;;;18.07;41.71;101870.22;5044989;28;20036;-35
2023/05/12 06:53:36;;;;;;;11.40;5.20;;;;;;;18.10;41.60;101864.66;5042852;28;20024;-35
2023/05/12 06:56:03;;;;;;;12.68;4.63;;;;;;;18.12;41.36;101856.56;5044692;28;20024;-36
2023/05/12 06:58:29;;;;;;;7.40;4.55;;;;;;;18.12;41.49;101859.22;5046542;28;20132;-36
2023/05/12 07:00:54;;;;;;;14.20;4.63;;;;;;;18.17;41.54;101867.75;5032581;28;20449;-35
2023/05/12 07:03:20;;;;;;;11.52;5.07;;;;;;;18.23;41.17;101867.28;5030602;28;20037;-35
2023/05/12 07:05:45;;;;;;;15.57;5.88;;;;;;;18.30;41.30;101866.84;5037034;28;20056;-35
2023/05/12 07:08:11;;;;;;;15.18;7.35;;;;;;;18.32;41.06;101868.41;5042607;28;20794;-36
2023/05/12 07:10:37;;;;;;;9.98;5.88;;;;;;;18.35;40.94;101864.69;5043392;28;20029;-35
2023/05/12 07:13:03;;;;;;;10.23;4.78;;;;;;;18.38;40.90;101859.13;5047650;22;21035;-32
2023/05/12 07:15:28;;;;;;;7.65;5.13;;;;;;;18.42;40.72;101865.94;5024814;28;20544;-33
2023/05/12 07:17:54;;;;;;;12.15;5.05;;;;;;;18.43;40.45;101862.31;5008324;28;20060;-33
2023/05/12 07:20:20;;;;;;;7.38;5.10;;;;;;;18.48;40.63;101857.50;5023094;28;20061;-33
2023/05/12 07:22:46;;;;;;;11.77;4.78;;;;;;;18.50;40.64;101860.91;5027627;28;20029;-33
2023/05/12 07:25:12;;;;;;;11.00;4.47;;;;;;;18.52;40.59;101861.66;5022746;28;20484;-33
2023/05/12 07:27:38;;;;;;;13.80;5.28;;;;;;;18.56;40.51;101865.78;5047216;23;20432;-35
2023/05/12 07:30:07;;;;;;;12.77;5.15;;;;;;;18.61;40.23;101870.75;5039960;28;20032;-35
2023/05/12 07:32:33;;;;;;;10.05;4.25;;;;;;;18.65;40.32;101866.91;5036250;22;20045;-37
2023/05/12 07:34:58;;;;;;;9.52;4.97;;;;;;;18.69;40.37;101867.53;5027350;28;20040;-36
2023/05/12 07:37:24;;;;;;;8.25;4.28;;;;;;;18.71;40.15;101862.94;5030321;28;20025;-37
2023/05/12 07:39:49;;;;;;;7.95;4.60;;;;;;;18.76;40.24;101867.91;5030468;28;20029;-34
2023/05/12 07:42:15;;;;;;;8.30;4.60;;;;;;;18.79;40.38;101871.22;5034357;28;20144;-34
2023/05/12 07:44:40;;;;;;;8.18;4.32;;;;;;;18.81;40.19;101871.97;5027289;28;20067;-36
2023/05/12 07:47:06;;;;;;;9.68;5.00;;;;;;;18.84;40.16;101874.38;5057152;22;20491;-34
2023/05/12 07:49:32;;;;;;;8.77;4.72;;;;;;;18.87;40.23;101874.16;5043826;28;20399;-34
2023/05/12 07:51:57;;;;;;;14.88;5.72;;;;;;;18.91;40.20;101871.25;5039846;28;20045;-34
2023/05/12 07:54:23;;;;;;;7.30;4.80;;;;;;;18.93;40.40;101870.16;5038511;28;20083;-34
2023/05/12 07:56:48;;;;;;;9.40;5.00;;;;;;;18.99;40.41;101869.75;5037902;28;20082;-34
2023/05/12 07:59:14;;;;;;;4.93;2.75;;;;;;;19.04;40.34;101877.38;5042359;28;20037;-34
2023/05/12 08:01:39;;;;;;;8.18;4.38;;;;;;;19.07;40.28;101869.16;5023239;22;20076;-30
2023/05/12 08:04:05;;;;;;;18.45;7.55;;;;;;;19.12;40.04;101875.00;5008758;28;20025;-34
2023/05/12 08:06:31;;;;;;;14.23;6.53;;;;;;;19.15;40.07;101874.75;4987072;28;20096;-31
2023/05/12 08:11:31;;;;;;;12.25;5.43;;;;;;;19.24;40.02;101867.03;5003209;28;20057;-36
2023/05/12 08:13:57;;;;;;;11.27;4.93;;;;;;;19.28;39.86;101868.50;5003116;28;20026;-35
2023/05/12 08:16:22;;;;;;;14.90;5.03;;;;;;;19.31;39.88;101866.44;5030979;22;20144;-35
2023/05/12 08:18:48;;;;;;;8.55;4.88;;;;;;;19.34;39.80;101865.34;5023746;28;20049;-35
2023/05/12 08:21:13;;;;;;;12.18;4.32;;;;;;;19.36;39.88;101860.72;5018799;28;20041;-35
2023/05/12 08:23:39;;;;;;;8.07;4.78;;;;;;;19.40;40.08;101866.66;5022614;28;20042;-35
2023/05/12 08:26:04;;;;;;;10.43;4.57;;;;;;;19.42;40.02;101860.25;5038134;22;20776;-33
2023/05/12 08:28:30;;;;;;;12.15;5.32;;;;;;;19.47;40.00;101866.06;5010651;28;20025;-33
2023/05/12 08:30:56;;;;;;;18.88;8.07;;;;;;;19.50;39.71;101867.69;5026276;23;20045;-34
2023/05/12 08:33:22;;;;;;;20.70;8.10;;;;;;;19.58;39.74;101864.41;5034905;28;21024;-36
2023/05/12 08:35:48;;;;;;;11.88;4.80;;;;;;;19.59;39.79;101861.59;5052661;22;20062;-32
2023/05/12 08:38:13;;;;;;;8.10;4.40;;;;;;;19.63;40.00;101864.88;5018147;28;20029;-33
2023/05/12 08:41:11;;;;;;;10.38;4.78;;;;;;;19.70;40.24;101862.56;5036017;28;20071;-31
2023/05/12 08:43:42;;;;;;;9.43;5.00;;;;;;;19.75;40.38;101860.41;5019123;23;20058;-34
2023/05/12 08:46:08;;;;;;;5.88;4.05;;;;;;;19.77;40.14;101864.63;5010002;28;20417;-34
2023/05/12 08:48:37;;;;;;;16.00;4.97;;;;;;;19.83;40.09;101865.97;4974645;28;20511;-34
2023/05/12 08:51:09;;;;;;;9.80;4.65;;;;;;;19.87;40.31;101866.63;5025100;28;20116;-34
2023/05/12 08:53:35;;;;;;;9.48;4.40;;;;;;;19.90;40.48;101869.03;5000734;23;20043;-33
2023/05/12 08:56:04;;;;;;;10.90;4.50;;;;;;;19.93;40.32;101874.13;4984226;28;20049;-33
2023/05/12 08:58:30;;;;;;;7.72;3.85;;;;;;;19.97;40.39;101864.91;4980436;28;20046;-33
2023/05/12 09:00:58;;;;;;;14.23;4.57;;;;;;;20.00;39.94;101866.47;4988764;28;20401;-33
2023/05/12 09:03:27;;;;;;;10.88;4.32;;;;;;;20.03;40.08;101861.75;4986812;28;20038;-33
2023/05/12 09:05:54;;;;;;;6.97;4.22;;;;;;;20.08;39.80;101856.88;4982091;28;20080;-33
2023/05/12 09:08:20;;;;;;;10.10;4.80;;;;;;;20.12;39.44;101857.47;4982841;28;20109;-33
2023/05/12 09:10:47;;;;;;;12.25;6.43;;;;;;;20.17;39.47;101857.13;4986755;28;20125;-35
2023/05/12 09:13:39;;;;;;;7.72;4.00;;;;;;;20.24;38.99;101860.97;4988622;28;20109;-33
2023/05/12 09:16:10;;;;;;;7.82;4.10;;;;;;;20.28;38.89;101858.88;5004245;23;20121;-34
2023/05/12 09:18:50;;;;;;;6.57;4.20;;;;;;;20.33;38.22;101854.88;5006944;28;20167;-34
2023/05/12 09:21:16;;;;;;;12.80;5.30;;;;;;;20.34;38.61;101845.91;5013512;28;20482;-35
2023/05/12 09:23:51;;;;;;;9.25;4.10;;;;;;;20.39;36.85;101851.69;5011773;28;20049;-35
2023/05/12 09:26:17;;;;;;;12.43;4.35;;;;;;;20.41;37.82;101852.41;5008919;28;20030;-34
2023/05/12 09:28:43;;;;;;;7.97;3.78;;;;;;;20.45;37.52;101849.50;5014013;28;20030;-35
2023/05/12 09:31:16;;;;;;;6.70;3.45;;;;;;;20.49;37.32;101848.28;5014029;22;20045;-33
2023/05/12 09:33:41;;;;;;;9.43;4.75;;;;;;;20.51;37.44;101851.66;5007895;28;20037;-33
2023/05/12 09:36:07;;;;;;;6.30;3.80;;;;;;;20.57;37.58;101851.16;5010997;23;20044;-34
2023/05/12 09:38:33;;;;;;;7.75;3.53;;;;;;;20.61;37.16;101849.06;5007297;28;20022;-34
2023/05/12 09:40:58;;;;;;;9.73;4.07;;;;;;;20.62;37.42;101843.59;5020877;28;20037;-34
2023/05/12 09:43:23;;;;;;;7.50;4.20;;;;;;;20.65;37.02;101840.66;5029002;28;20029;-35
2023/05/12 09:45:49;;;;;;;8.65;4.65;;;;;;;20.68;36.78;101843.06;5026563;28;20116;-35
2023/05/12 09:48:15;;;;;;;8.20;3.67;;;;;;;20.71;36.36;101845.50;5027795;28;20029;-33
2023/05/12 09:50:45;;;;;;;8.65;3.67;;;;;;;20.74;36.11;101846.22;5028846;28;20034;-35
2023/05/12 09:53:11;;;;;;;6.55;3.40;;;;;;;20.77;36.03;101846.84;5043218;22;20025;-34
2023/05/12 09:55:36;;;;;;;9.48;3.78;;;;;;;20.80;36.41;101843.06;4982780;28;20104;-34
2023/05/12 09:58:08;;;;;;;5.32;3.50;;;;;;;20.85;36.39;101848.88;5035404;23;20037;-33
2023/05/12 10:00:35;;;;;;;8.95;4.28;;;;;;;20.89;36.09;101850.31;5041365;28;20036;-33
2023/05/12 10:03:08;;;;;;;10.20;4.00;;;;;;;20.98;35.96;101854.03;5046131;28;20032;-33
2023/05/12 10:05:36;;;;;;;8.65;3.70;;;;;;;21.06;36.19;101853.41;5047628;28;20021;-33
2023/05/12 10:08:06;;;;;;;6.28;4.05;;;;;;;21.10;36.02;101854.84;5043070;28;20035;-34
2023/05/12 10:10:32;;;;;;;8.15;3.42;;;;;;;21.13;35.82;101844.72;5044219;28;20094;-34
2023/05/12 10:12:59;;;;;;;11.18;3.60;;;;;;;21.15;35.78;101845.44;5045304;28;20033;-33
2023/05/12 10:15:26;;;;;;;17.73;8.02;;;;;;;21.20;35.76;101842.34;5043721;28;20055;-34
2023/05/12 10:17:54;;;;;;;9.20;3.60;;;;;;;21.26;35.77;101844.47;5044646;28;20043;-33
2023/05/12 10:20:20;;;;;;;6.55;3.65;;;;;;;21.28;35.83;101850.56;5037102;28;20522;-34
2023/05/12 10:22:47;;;;;;;6.13;3.35;;;;;;;21.32;35.37;101846.66;5045094;28;20068;-34
2023/05/12 10:25:15;;;;;;;10.35;3.60;;;;;;;21.38;34.75;101839.06;5048203;28;20044;-34
2023/05/12 10:27:41;;;;;;;6.63;3.58;;;;;;;21.42;34.29;101837.81;5047218;28;20903;-33
2023/05/12 10:30:09;;;;;;;9.15;3.47;;;;;;;21.47;34.38;101843.63;5057580;28;20037;-33
2023/05/12 10:32:34;;;;;;;7.25;3.58;;;;;;;21.50;34.53;101840.69;5045403;28;20044;-33
2023/05/12 10:35:08;;;;;;;10.05;2.50;;;;;;;21.59;34.38;101836.34;5042999;22;20098;-32
2023/05/12 10:37:34;;;;;;;9.25;4.65;;;;;;;21.61;34.64;101835.25;5005972;28;20029;-35
2023/05/12 10:40:02;;;;;;;9.52;3.17;;;;;;;21.66;34.68;101831.34;5031897;22;20052;-35
2023/05/12 10:42:36;;;;;;;12.70;5.47;;;;;;;21.73;34.20;101830.66;5011895;28;20038;-34
2023/05/12 10:45:03;;;;;;;13.13;7.60;;;;;;;21.77;34.10;101831.22;5005647;28;20024;-34
2023/05/12 10:47:36;;;;;;;6.60;3.92;;;;;;;21.85;33.23;101835.91;5006809;28;20547;-34
2023/05/12 10:50:01;;;;;;;8.32;3.25;;;;;;;21.86;33.41;101833.06;5003593;28;20034;-34
2023/05/12 10:52:27;;;;;;;5.97;4.25;;;;;;;21.91;33.13;101828.16;5002528;28;20124;-34
2023/05/12 10:55:00;;;;;;;6.63;3.45;;;;;;;21.98;32.56;101831.13;4997838;28;20123;-34
2023/05/12 10:57:26;;;;;;;7.35;3.20;;;;;;;22.00;32.79;101833.69;4998215;28;20018;-35
2023/05/12 10:59:59;;;;;;;5.97;3.08;;;;;;;22.04;32.99;101830.59;4998823;28;20049;-34
2023/05/12 11:02:32;;;;;;;8.32;3.03;;;;;;;22.07;32.94;101821.44;5001679;28;20028;-34
2023/05/12 11:05:05;;;;;;;9.00;3.80;;;;;;;22.11;32.72;101813.94;5021926;22;20103;-32
2023/05/12 11:07:32;;;;;;;9.23;3.42;;;;;;;22.14;32.64;101819.03;5016391;28;21338;-32
2023/05/12 11:10:02;;;;;;;8.63;3.20;;;;;;;22.20;32.65;101819.34;5033808;22;20441;-36
2023/05/12 11:12:34;;;;;;;6.72;3.15;;;;;;;22.25;32.14;101823.44;5019375;28;20061;-34
2023/05/12 11:15:01;;;;;;;9.05;3.08;;;;;;;22.25;32.12;101821.59;5024097;28;20496;-34
2023/05/12 11:17:26;;;;;;;10.27;3.90;;;;;;;22.30;32.12;101807.78;5034827;28;20098;-34
2023/05/12 11:19:52;;;;;;;8.45;3.05;;;;;;;22.34;31.61;101819.91;5025582;28;20415;-34
2023/05/12 11:22:19;;;;;;;7.63;3.28;;;;;;;22.37;31.67;101814.28;5027046;28;20890;-34
2023/05/12 11:24:45;;;;;;;4.60;3.13;;;;;;;22.38;31.31;101813.28;5027863;22;20050;-35